AirNav   ProFlight Series 2 Aviation Headset
 
 998 users online  

7PS8 Bucktail Medical Center Heliport
South Renovo, Pennsylvania, USA

GOING TO SOUTH RENOVO?


FAA INFORMATION EFFECTIVE 18 JUNE 2020

Location

FAA Identifier: 7PS8
Lat/Long: 41-19-37.8700N 077-44-10.3800W
41-19.631167N 077-44.173000W
41.3271861,-77.7362167
(estimated)
Elevation: 665 ft. / 203 m (estimated)
Variation: 10W (1985)
From city: 1 mile NE of SOUTH RENOVO, PA
Time zone: UTC -4 (UTC -5 during Standard Time)
Zip code: 17764

Heliport Operations

Heliport use: Private use, MEDICAL USE.
Activation date: 12/1987
Control tower: no
ARTCC: NEW YORK CENTER
FSS: WILLIAMSPORT FLIGHT SERVICE STATION
Attendance: CONTINUOUS
Wind indicator: lighted
Segmented circle: no
Lights: SS-SR

Nearby radio navigation aids

VOR radial/distance  VOR name  Freq  Var
SLTr145/15.3SLATE RUN VORTAC113.9008W
ETGr080/19.5KEATING VORTAC116.0010W
SFKr221/26.3STONYFORK VOR/DME108.6008W
PSBr035/27.2PHILIPSBURG VORTAC115.5010W

Heliport Services

Runway Information

Helipad H1

Dimensions: 65 x 65 ft. / 20 x 20 m
Surface: asphalt, in good condition
Latitude: 41-19.631167N
Longitude: 077-44.173000W
Elevation: 665.0 ft.
Traffic pattern: leftleft
Markings: none, in fair condition

Heliport Ownership and Management from official FAA records

Ownership: Privately-owned
Owner: BUCKTAIL MEDICAL CENTER
1001 PINE ST.
RENOVO, PA 17764
Phone 570-923-1000
Manager: DAVID KNAUFF
1001 PINE ST.
RENOVO, PA 17764
Phone (570) 531-6136

Additional Remarks

FOR CD CTC NEW YORK ARTCC AT 631-468-1425.

Instrument Procedures

There are no published instrument procedures at 7PS8.

Some nearby airports with instrument procedures:

KLHV - William T Piper Memorial Airport (18 nm SE)
N96 - Bellefonte Airport (27 nm S)
N38 - Wellsboro Johnston Airport (29 nm NE)
KUNV - University Park Airport (29 nm S)
KPSB - Mid-State Airport (31 nm SW)
 
Loc | Ops | Rwys | IFR | FBO | Links
Com | Nav | Svcs | Stats | Notes
Area around 7PS8 (Bucktail Medical Center Heliport)
 
Road maps at: MapQuest Bing Google
 
Aerial photo
No photo
 
Sectional chart

 
Airport distance calculator
Flying to Bucktail Medical Center Heliport? Find the distance to fly.

From to 7PS8

Sunrise and sunset
Times for 12-Jul-2020
 Local
(UTC-4)
 Zulu
(UTC)
Morning civil twilight05:1709:17
Sunrise05:5009:50
Sunset20:4300:43
Evening civil twilight21:1601:16

Current date and time
Zulu (UTC)  12-Jul-2020 18:53:39
Local (UTC-4)  12-Jul-2020 14:53:39
 
METAR
KN38 
28nm NE 
121835Z AUTO VRB04KT 10SM SCT055 BKN080 OVC095 25/15 A2978 RMK AO2
KUNV 
29nm S 
121753Z 21007KT 10SM SCT055 26/18 A2978
KOYM 
35nm W 
121835Z AUTO 24010G15KT 10SM -VCTSRA BKN048 BKN070 BKN090 24/16 A2983 RMK AO2 LTG DSNT SE THRU SW
KFIG 
35nm SW 
121834Z AUTO 01005KT 10SM VCTS -RA SCT020 BKN055 OVC075 19/16 A2980 RMK AO2 PK WND 30030/1811 WSHFT 1757 LTG DSNT NW RAB06 P0052 T01940156
KIPT 
37nm E 
121754Z VRB03KT 10SM FEW085 BKN100 29/14 A2972 RMK AO2 SLP059 60000 T02940144 10300 20217 58012 $
KRVL 
39nm S 
121835Z AUTO 19005KT 10SM FEW100 28/17 A2976 RMK AO2
KELZ 
48nm N 
121756Z AUTO 26007KT 10SM FEW042 SCT065 BKN095 24/16 A2981 RMK AO2 SLP083 T02440156 10250 20178 58007
KBFD 
49nm NW 
121753Z AUTO 32006KT 10SM CLR 26/14 A2980 RMK AO2 SLP076 T02610144 10261 20189 58008
KSEG 
50nm SE 
121753Z AUTO VRB04KT 10SM FEW060 OVC110 27/18 A2975 RMK AO2 SLP069 T02720183 10289 20206 58011
TAF
KUNV 
29nm S 
121748Z 1218/1318 22009KT P6SM SCT040 SCT080 BKN120 FM122200 26005KT P6SM VCSH SCT040 BKN080 FM130100 VRB03KT P6SM BKN080
NOTAMs
Click for the latest NOTAMs
NOTAMs are issued by the DoD/FAA and will open in a separate window not controlled by AirNav.

 

 
 

Would you like to see your business listed on this page?

 If your business provides an interesting product or service to pilots, flight crews, aircraft, or users of the Bucktail Medical Center Heliport, you should consider listing it here.  To start the listing process, click on the button below
 
Add a business
 

Other Pages about Bucktail Medical Center Heliport

Update a link
 
Copyright © AirNav, LLC. All rights reserved. Privacy Policy  Contact